createdAt,value
2022-12-01T00:01:26.732Z,88.99
2022-12-01T00:03:54.575Z,89.26
2022-12-01T00:06:22.472Z,89.26
2022-12-01T00:09:12.979Z,89.18
2022-12-01T00:11:42.815Z,88.86
2022-12-01T00:14:10.376Z,89.07
2022-12-01T00:16:38.568Z,88.58
2022-12-01T00:19:06.142Z,88.71
2022-12-01T00:21:33.665Z,89.19
2022-12-01T00:24:01.233Z,88.99
2022-12-01T00:26:28.867Z,88.91
2022-12-01T00:28:59.865Z,88.72
2022-12-01T00:31:27.866Z,88.88
2022-12-01T00:33:55.632Z,88.86
2022-12-01T00:36:24.188Z,89.41
2022-12-01T00:38:53.704Z,89.12
2022-12-01T00:41:22.291Z,89.35
2022-12-01T00:43:51.243Z,88.76
2022-12-01T00:46:18.918Z,89.04
2022-12-01T00:48:46.587Z,88.83
2022-12-01T00:51:14.330Z,88.94
2022-12-01T00:53:42.548Z,88.94
2022-12-01T00:56:10.288Z,89.13
2022-12-01T00:58:37.926Z,89.18
2022-12-01T01:01:05.984Z,88.93
2022-12-01T01:03:34.623Z,88.93
2022-12-01T01:06:08.171Z,89.13
2022-12-01T01:08:36.263Z,89.05
2022-12-01T01:11:04.861Z,89.07
2022-12-01T01:13:33.348Z,89.07
2022-12-01T01:16:03.851Z,89.35
2022-12-01T01:18:32.296Z,89.46
2022-12-01T01:21:07.038Z,89.42
2022-12-01T01:23:34.996Z,89.41
2022-12-01T01:26:13.658Z,89.72
2022-12-01T01:28:41.787Z,89.44
2022-12-01T01:31:12.391Z,89.82
2022-12-01T01:33:40.346Z,89.77
2022-12-01T01:36:08.664Z,90.16
2022-12-01T01:38:37.272Z,90.39
2022-12-01T01:41:07.372Z,90.23
2022-12-01T01:43:39.316Z,90.31
2022-12-01T01:46:08.556Z,90.28
2022-12-01T01:48:38.610Z,90.13
2022-12-01T01:51:07.964Z,90.76
2022-12-01T01:53:35.951Z,90.59
2022-12-01T01:56:04.996Z,90.66
2022-12-01T01:58:33.655Z,90.67
2022-12-01T02:01:01.389Z,90.65
2022-12-01T02:03:30.187Z,91.23
2022-12-01T02:06:03.430Z,91.11
2022-12-01T02:08:35.779Z,91.37
2022-12-01T02:11:31.433Z,91.04
2022-12-01T02:14:16.169Z,91.14
2022-12-01T02:17:01.885Z,91.41
2022-12-01T02:20:09.414Z,91.30
2022-12-01T02:23:28.335Z,91.52
2022-12-01T02:26:20.481Z,91.65
2022-12-01T02:29:15.240Z,91.93
2022-12-01T02:32:16.469Z,91.69
2022-12-01T02:34:55.690Z,91.68
2022-12-01T02:37:27.069Z,91.60
2022-12-01T02:40:18.120Z,91.59
2022-12-01T02:43:05.878Z,91.47
2022-12-01T02:45:43.699Z,91.84
2022-12-01T02:48:39.324Z,91.89
2022-12-01T02:51:15.175Z,91.87
2022-12-01T02:53:43.247Z,92.43
2022-12-01T02:56:13.416Z,92.07
2022-12-01T02:58:41.916Z,92.42
2022-12-01T03:01:38.673Z,92.03
2022-12-01T03:04:32.937Z,92.26
2022-12-01T03:07:09.294Z,91.67
2022-12-01T03:10:04.123Z,92.01
2022-12-01T03:12:46.372Z,92.21
2022-12-01T03:15:45.293Z,92.42
2022-12-01T03:18:50.910Z,92.22
2022-12-01T03:21:30.980Z,92.55
2022-12-01T03:24:26.448Z,92.68
2022-12-01T03:26:57.431Z,91.97
2022-12-01T03:29:33.710Z,91.91
2022-12-01T03:32:08.407Z,92.58
2022-12-01T03:34:35.916Z,92.73
2022-12-01T03:37:10.637Z,92.55
2022-12-01T03:39:40.249Z,92.69
2022-12-01T03:42:39.140Z,92.67
2022-12-01T03:45:19.790Z,92.69
2022-12-01T03:47:47.376Z,92.84
2022-12-01T03:50:18.642Z,92.78
2022-12-01T03:53:11.358Z,92.87
2022-12-01T03:55:46.805Z,92.88
2022-12-01T03:58:23.011Z,92.59
2022-12-01T04:00:53.454Z,92.67
2022-12-01T04:03:24.870Z,92.88
2022-12-01T04:05:52.619Z,92.53
2022-12-01T04:08:20.693Z,92.92
2022-12-01T04:10:48.243Z,93.00
2022-12-01T04:13:25.679Z,92.81
2022-12-01T04:15:55.151Z,92.65
2022-12-01T04:18:22.772Z,92.87
2022-12-01T04:20:50.660Z,93.04
2022-12-01T04:23:36.679Z,92.80
2022-12-01T04:26:05.247Z,92.94
2022-12-01T04:28:32.930Z,92.87
2022-12-01T04:31:00.575Z,93.00
2022-12-01T04:33:29.565Z,92.86
2022-12-01T04:36:00.910Z,93.16
2022-12-01T04:38:30.742Z,93.06
2022-12-01T04:40:58.854Z,93.43
2022-12-01T04:43:26.515Z,92.94
2022-12-01T04:45:53.999Z,93.05
2022-12-01T04:48:21.488Z,93.10
2022-12-01T04:50:49.976Z,93.02
2022-12-01T04:53:17.538Z,93.02
2022-12-01T04:55:45.132Z,93.22
2022-12-01T04:58:13.071Z,92.99
2022-12-01T05:00:40.892Z,93.27
2022-12-01T05:03:13.543Z,93.13
2022-12-01T05:05:42.676Z,93.08
2022-12-01T05:08:10.736Z,93.40
2022-12-01T05:10:39.091Z,93.38
2022-12-01T05:13:06.692Z,93.27
2022-12-01T05:15:34.332Z,93.33
2022-12-01T05:18:01.934Z,93.41
2022-12-01T05:20:48.522Z,93.07
2022-12-01T05:23:17.144Z,93.29
2022-12-01T05:25:44.899Z,93.33
2022-12-01T05:28:12.651Z,93.04
2022-12-01T05:30:40.935Z,93.29
2022-12-01T05:33:08.534Z,93.29
2022-12-01T05:35:36.144Z,93.20
2022-12-01T05:38:07.811Z,93.24
2022-12-01T05:40:37.040Z,93.35
2022-12-01T05:43:04.952Z,93.74
2022-12-01T05:45:33.745Z,93.47
2022-12-01T05:48:02.241Z,93.76
2022-12-01T05:50:31.048Z,93.71
2022-12-01T05:52:58.606Z,93.69
2022-12-01T05:55:26.247Z,93.80
2022-12-01T05:57:53.800Z,93.80
2022-12-01T06:00:21.456Z,93.72
2022-12-01T06:02:49.168Z,93.74
2022-12-01T06:05:16.967Z,93.83
2022-12-01T06:07:44.570Z,93.69
2022-12-01T06:10:12.897Z,93.77
2022-12-01T06:12:40.462Z,93.89
2022-12-01T06:15:08.631Z,93.74
2022-12-01T06:17:40.227Z,93.67
2022-12-01T06:20:09.284Z,93.80
2022-12-01T06:22:36.927Z,94.00
2022-12-01T06:25:04.837Z,93.95
2022-12-01T06:27:32.554Z,93.89
2022-12-01T06:30:00.196Z,93.56
2022-12-01T06:32:27.684Z,93.85
2022-12-01T06:34:55.238Z,93.91
2022-12-01T06:37:22.831Z,94.42
2022-12-01T06:39:50.819Z,93.68
2022-12-01T06:42:18.633Z,93.79
2022-12-01T06:44:46.418Z,93.48
2022-12-01T06:47:15.570Z,93.86
2022-12-01T06:49:43.248Z,93.60
2022-12-01T06:52:10.819Z,93.91
2022-12-01T06:54:39.702Z,93.89
2022-12-01T06:57:07.614Z,93.90
2022-12-01T06:59:35.351Z,93.65
2022-12-01T07:02:03.295Z,93.70
2022-12-01T07:04:31.203Z,94.03
2022-12-01T07:06:58.997Z,94.39
2022-12-01T07:09:26.526Z,94.13
2022-12-01T07:11:54.098Z,94.14
2022-12-01T07:14:26.810Z,93.83
2022-12-01T07:16:54.716Z,93.98
2022-12-01T07:19:22.352Z,94.32
2022-12-01T07:21:50.366Z,94.03
2022-12-01T07:24:18.140Z,94.11
2022-12-01T07:26:45.734Z,94.08
2022-12-01T07:29:13.359Z,94.16
2022-12-01T07:31:41.007Z,94.17
2022-12-01T07:34:12.937Z,94.15
2022-12-01T07:36:40.545Z,94.16
2022-12-01T07:39:08.770Z,94.27
2022-12-01T07:41:36.467Z,93.97
2022-12-01T07:44:04.217Z,94.42
2022-12-01T07:46:32.078Z,94.14
2022-12-01T07:49:00.481Z,94.63
2022-12-01T07:51:29.150Z,93.90
2022-12-01T07:53:56.745Z,94.06
2022-12-01T07:56:24.412Z,94.00
2022-12-01T07:58:52.152Z,93.94
2022-12-01T08:01:22.791Z,94.04
2022-12-01T08:03:52.353Z,94.54
2022-12-01T08:06:20.638Z,94.20
2022-12-01T08:08:49.243Z,94.29
2022-12-01T08:11:20.149Z,94.38
2022-12-01T08:13:47.828Z,94.33
2022-12-01T08:16:17.810Z,94.67
2022-12-01T08:18:46.034Z,94.29
2022-12-01T08:21:15.931Z,94.37
2022-12-01T08:23:44.290Z,94.71
2022-12-01T08:26:17.239Z,94.22
2022-12-01T08:28:46.280Z,94.22
2022-12-01T08:31:19.119Z,94.15
2022-12-01T08:33:48.459Z,94.42
2022-12-01T08:36:16.731Z,94.16
2022-12-01T08:38:45.573Z,94.31
2022-12-01T08:41:14.239Z,94.28
2022-12-01T08:44:00.448Z,94.25
2022-12-01T08:46:32.786Z,94.27
2022-12-01T08:49:01.409Z,94.30
2022-12-01T08:51:29.220Z,94.27
2022-12-01T08:53:58.202Z,94.67
2022-12-01T08:56:32.674Z,94.41
2022-12-01T08:59:00.862Z,94.36
2022-12-01T09:01:29.299Z,94.37
2022-12-01T09:04:10.716Z,94.19
2022-12-01T09:06:43.560Z,94.53
2022-12-01T09:09:14.616Z,94.54
2022-12-01T09:11:46.254Z,94.16
2022-12-01T09:14:16.238Z,94.56
2022-12-01T09:16:46.550Z,94.15
2022-12-01T09:19:22.143Z,94.29
2022-12-01T09:21:51.695Z,93.81
2022-12-01T09:24:19.602Z,94.18
2022-12-01T09:26:47.461Z,94.36
2022-12-01T09:29:16.728Z,93.67
2022-12-01T09:31:45.017Z,94.31
2022-12-01T09:34:15.852Z,94.09
2022-12-01T09:36:44.441Z,94.33
2022-12-01T09:39:14.989Z,94.61
2022-12-01T09:41:54.587Z,94.50
2022-12-01T09:44:39.433Z,93.92
2022-12-01T09:47:26.605Z,94.30
2022-12-01T09:50:03.318Z,94.64
2022-12-01T09:52:42.201Z,94.28
2022-12-01T09:55:15.523Z,94.72
2022-12-01T09:57:46.830Z,93.98
2022-12-01T10:00:21.222Z,93.81
2022-12-01T10:02:56.234Z,93.86
2022-12-01T10:05:29.220Z,93.78
2022-12-01T10:08:02.367Z,94.01
2022-12-01T10:11:05.891Z,93.90
2022-12-01T10:13:34.221Z,94.40
2022-12-01T10:16:11.364Z,94.11
2022-12-01T10:18:56.256Z,93.68
2022-12-01T10:21:40.869Z,94.14
2022-12-01T10:24:14.461Z,94.24
2022-12-01T10:27:21.876Z,93.81
2022-12-01T10:29:54.802Z,93.73
2022-12-01T10:32:38.124Z,94.42
2022-12-01T10:35:07.101Z,93.69
2022-12-01T10:37:34.877Z,94.12
2022-12-01T10:40:02.737Z,94.24
2022-12-01T10:42:50.705Z,93.87
2022-12-01T10:45:27.287Z,93.94
2022-12-01T10:48:10.364Z,94.19
2022-12-01T10:50:38.164Z,93.95
2022-12-01T10:53:05.798Z,94.17
2022-12-01T10:55:43.437Z,94.44
2022-12-01T10:58:17.455Z,94.65
2022-12-01T11:01:00.591Z,93.68
2022-12-01T11:03:31.904Z,93.83
2022-12-01T11:06:03.404Z,94.35
2022-12-01T11:08:52.601Z,94.18
2022-12-01T11:11:23.828Z,94.68
2022-12-01T11:13:51.735Z,93.63
2022-12-01T11:16:41.553Z,94.42
2022-12-01T11:19:27.363Z,94.17
2022-12-01T11:21:58.464Z,93.92
2022-12-01T11:24:33.782Z,93.86
2022-12-01T11:27:01.961Z,93.91
2022-12-01T11:29:39.672Z,93.95
2022-12-01T11:32:29.594Z,93.93
2022-12-01T11:35:14.960Z,94.29
2022-12-01T11:38:27.930Z,93.58
2022-12-01T11:40:51.712Z,94.27
2022-12-01T11:43:41.543Z,93.95
2022-12-01T11:46:11.610Z,94.06
2022-12-01T11:48:39.288Z,94.27
2022-12-01T11:51:09.481Z,94.31
2022-12-01T11:53:42.687Z,94.42
2022-12-01T11:56:31.581Z,94.49
2022-12-01T11:59:02.679Z,93.87
2022-12-01T12:01:45.344Z,94.23
2022-12-01T12:04:37.376Z,94.42
2022-12-01T12:07:35.061Z,94.45
2022-12-01T12:10:24.514Z,94.14
2022-12-01T12:13:13.443Z,94.14
2022-12-01T12:15:50.142Z,93.76
2022-12-01T12:18:27.282Z,93.55
2022-12-01T12:20:57.880Z,94.15
2022-12-01T12:23:57.386Z,94.32
2022-12-01T12:26:57.775Z,94.27
2022-12-01T12:29:52.231Z,93.58
2022-12-01T12:32:25.639Z,94.42
2022-12-01T12:35:17.234Z,94.41
2022-12-01T12:37:44.855Z,93.85
2022-12-01T12:40:30.326Z,93.75
2022-12-01T12:43:22.695Z,94.60
2022-12-01T12:46:11.433Z,93.57
2022-12-01T12:49:12.154Z,94.46
2022-12-01T12:52:02.602Z,93.94
2022-12-01T12:54:47.975Z,94.42
2022-12-01T12:57:25.825Z,94.08
2022-12-01T12:59:58.002Z,94.01
2022-12-01T13:02:44.520Z,93.76
2022-12-01T13:05:25.854Z,94.59
2022-12-01T13:08:16.848Z,93.72
2022-12-01T13:10:58.174Z,94.64
2022-12-01T13:13:46.316Z,94.36
2022-12-01T13:16:19.710Z,94.19
2022-12-01T13:18:53.755Z,94.79
2022-12-01T13:21:22.882Z,94.07
2022-12-01T13:23:52.905Z,93.78
2022-12-01T13:26:22.605Z,94.41
2022-12-01T13:28:53.858Z,94.18
2022-12-01T13:31:23.009Z,94.42
2022-12-01T13:34:01.917Z,94.16
2022-12-01T13:36:47.656Z,94.83
2022-12-01T13:39:28.071Z,94.90
2022-12-01T13:42:17.073Z,95.14
2022-12-01T13:44:53.017Z,94.40
2022-12-01T13:47:20.671Z,94.64
2022-12-01T13:49:50.823Z,94.64
2022-12-01T13:52:21.669Z,94.75
2022-12-01T13:55:12.091Z,94.86
2022-12-01T13:57:50.464Z,95.29
2022-12-01T14:00:24.217Z,95.00
2022-12-01T14:03:10.817Z,95.00
2022-12-01T14:06:09.015Z,94.97
2022-12-01T14:08:46.297Z,95.12
2022-12-01T14:11:22.006Z,95.31
2022-12-01T14:13:49.591Z,95.29
2022-12-01T14:16:17.441Z,94.86
2022-12-01T14:18:56.886Z,95.13
2022-12-01T14:21:47.046Z,94.39
2022-12-01T14:24:34.374Z,94.62
2022-12-01T14:27:03.549Z,94.67
2022-12-01T14:29:38.544Z,95.12
2022-12-01T14:32:09.204Z,94.76
2022-12-01T14:34:38.224Z,94.99
2022-12-01T14:37:16.825Z,94.76
2022-12-01T14:39:56.407Z,95.01
2022-12-01T14:43:03.790Z,95.03
2022-12-01T14:45:39.365Z,94.67
2022-12-01T14:48:25.165Z,94.80
2022-12-01T14:51:09.799Z,95.48
2022-12-01T14:53:44.571Z,94.75
2022-12-01T14:56:16.736Z,95.28
2022-12-01T14:59:01.619Z,95.67
2022-12-01T15:01:34.123Z,95.83
2022-12-01T15:04:04.738Z,95.58
2022-12-01T15:06:34.761Z,95.60
2022-12-01T15:09:33.333Z,95.71
2022-12-01T15:12:06.966Z,95.63
2022-12-01T15:14:46.637Z,95.32
2022-12-01T15:17:31.379Z,95.01
2022-12-01T15:19:59.386Z,95.53
2022-12-01T15:22:31.808Z,95.45
2022-12-01T15:25:29.029Z,95.39
2022-12-01T15:28:12.071Z,95.48
2022-12-01T15:30:41.733Z,96.24
2022-12-01T15:33:28.411Z,95.98
2022-12-01T15:36:00.442Z,95.86
2022-12-01T15:38:37.384Z,95.24
2022-12-01T15:44:03.609Z,95.69
2022-12-01T15:46:34.497Z,96.45
2022-12-01T15:49:16.484Z,95.82
2022-12-01T15:51:44.770Z,96.24
2022-12-01T15:54:26.458Z,95.91
2022-12-01T15:56:56.218Z,96.09
2022-12-01T15:59:49.297Z,96.43
2022-12-01T16:02:20.217Z,95.82
2022-12-01T16:04:49.664Z,95.94
2022-12-01T16:07:17.589Z,96.24
2022-12-01T16:09:58.916Z,95.43
2022-12-01T16:12:33.058Z,95.79
2022-12-01T16:15:00.592Z,95.76
2022-12-01T16:17:40.473Z,96.71
2022-12-01T16:20:31.725Z,95.62
2022-12-01T16:23:02.909Z,95.73
2022-12-01T16:25:48.844Z,95.86
2022-12-01T16:28:36.447Z,95.81
2022-12-01T16:31:06.051Z,95.32
2022-12-01T16:33:39.184Z,96.26
2022-12-01T16:36:07.193Z,95.75
2022-12-01T16:38:34.958Z,95.72
2022-12-01T16:41:15.895Z,96.25
2022-12-01T16:44:05.497Z,96.22
2022-12-01T16:46:32.089Z,95.90
2022-12-01T16:48:59.780Z,95.54
2022-12-01T16:51:35.624Z,96.18
2022-12-01T16:54:10.497Z,95.71
2022-12-01T16:56:38.109Z,95.38
2022-12-01T16:59:05.871Z,95.91
2022-12-01T17:01:33.566Z,96.22
2022-12-01T17:04:06.030Z,96.03
2022-12-01T17:06:36.186Z,96.46
2022-12-01T17:09:03.895Z,96.19
2022-12-01T17:11:32.671Z,95.82
2022-12-01T17:14:00.309Z,95.72
2022-12-01T17:16:28.143Z,95.59
2022-12-01T17:18:55.941Z,96.03
2022-12-01T17:21:23.534Z,96.56
2022-12-01T17:23:51.150Z,95.30
2022-12-01T17:26:20.588Z,96.18
2022-12-01T17:28:48.646Z,96.58
2022-12-01T17:31:16.770Z,96.15
2022-12-01T17:33:44.468Z,95.41
2022-12-01T17:36:13.917Z,95.53
2022-12-01T17:38:46.140Z,95.71
2022-12-01T17:41:16.951Z,96.09
2022-12-01T17:43:44.830Z,95.26
2022-12-01T17:46:13.227Z,95.99
2022-12-01T17:48:43.682Z,96.49
2022-12-01T17:51:13.532Z,95.90
2022-12-01T17:53:41.468Z,95.38
2022-12-01T17:56:10.719Z,95.50
2022-12-01T17:58:38.736Z,95.87
2022-12-01T18:01:12.559Z,95.77
2022-12-01T18:03:41.415Z,96.20
2022-12-01T18:06:09.368Z,95.36
2022-12-01T18:08:37.916Z,95.81
2022-12-01T18:11:10.054Z,95.94
2022-12-01T18:13:39.437Z,96.21
2022-12-01T18:16:15.700Z,95.50
2022-12-01T18:18:43.736Z,95.19
2022-12-01T18:21:16.836Z,95.31
2022-12-01T18:23:51.334Z,95.81
2022-12-01T18:26:21.944Z,95.51
2022-12-01T18:28:58.132Z,95.53
2022-12-01T18:31:26.685Z,95.53
2022-12-01T18:33:54.265Z,95.54
2022-12-01T18:36:24.403Z,95.72
2022-12-01T18:38:53.574Z,95.35
2022-12-01T18:41:21.245Z,95.37
2022-12-01T18:43:49.382Z,95.32
2022-12-01T18:46:18.968Z,95.65
2022-12-01T18:48:48.780Z,95.03
2022-12-01T18:51:16.346Z,94.96
2022-12-01T18:53:45.545Z,95.90
2022-12-01T18:56:15.426Z,95.18
2022-12-01T18:58:43.231Z,95.55
2022-12-01T19:01:25.557Z,95.47
2022-12-01T19:03:55.506Z,95.00
2022-12-01T19:06:23.885Z,94.83
2022-12-01T19:08:52.809Z,95.22
2022-12-01T19:11:21.007Z,95.08
2022-12-01T19:13:48.772Z,95.30
2022-12-01T19:16:18.007Z,95.83
2022-12-01T19:18:46.312Z,94.55
2022-12-01T19:21:16.886Z,95.65
2022-12-01T19:23:46.433Z,94.80
2022-12-01T19:26:17.057Z,94.59
2022-12-01T19:28:45.859Z,94.75
2022-12-01T19:31:17.776Z,95.25
2022-12-01T19:33:46.094Z,95.19
2022-12-01T19:36:20.086Z,94.87
2022-12-01T19:38:48.776Z,95.06
2022-12-01T19:41:16.947Z,95.14
2022-12-01T19:43:44.679Z,94.46
2022-12-01T19:46:15.740Z,95.32
2022-12-01T19:48:45.629Z,94.60
2022-12-01T19:51:22.318Z,95.32
2022-12-01T19:53:50.827Z,94.92
2022-12-01T19:56:18.527Z,95.02
2022-12-01T19:58:46.417Z,94.39
2022-12-01T20:01:16.208Z,94.60
2022-12-01T20:03:49.326Z,94.71
2022-12-01T20:06:20.161Z,95.51
2022-12-01T20:08:47.846Z,95.03
2022-12-01T20:11:15.895Z,94.99
2022-12-01T20:13:45.618Z,95.76
2022-12-01T20:16:22.947Z,95.62
2022-12-01T20:18:51.762Z,95.18
2022-12-01T20:21:25.719Z,94.89
2022-12-01T20:24:01.369Z,95.36
2022-12-01T20:26:42.490Z,95.19
2022-12-01T20:29:20.846Z,95.33
2022-12-01T20:31:50.223Z,94.70
2022-12-01T20:34:27.315Z,94.29
2022-12-01T20:36:56.898Z,95.26
2022-12-01T20:39:24.855Z,94.62
2022-12-01T20:41:52.839Z,95.25
2022-12-01T20:44:21.533Z,94.72
2022-12-01T20:46:49.541Z,94.74
2022-12-01T20:49:18.536Z,94.42
2022-12-01T20:51:47.588Z,94.85
2022-12-01T20:54:27.878Z,94.87
2022-12-01T20:56:55.913Z,94.71
2022-12-01T20:59:23.520Z,95.42
2022-12-01T21:01:51.170Z,94.90
2022-12-01T21:04:18.845Z,94.81
2022-12-01T21:06:47.380Z,94.95
2022-12-01T21:09:15.111Z,95.45
2022-12-01T21:12:07.003Z,95.36
2022-12-01T21:14:37.839Z,95.30
2022-12-01T21:17:32.115Z,94.96
2022-12-01T21:20:21.452Z,94.90
2022-12-01T21:22:51.253Z,94.80
2022-12-01T21:25:22.392Z,95.18
2022-12-01T21:27:50.414Z,94.87
2022-12-01T21:30:21.097Z,95.10
2022-12-01T21:32:49.674Z,95.03
2022-12-01T21:35:22.808Z,95.02
2022-12-01T21:37:58.278Z,94.86
2022-12-01T21:40:27.149Z,94.90
2022-12-01T21:42:56.533Z,94.49
2022-12-01T21:45:29.923Z,94.45
2022-12-01T21:48:13.051Z,94.44
2022-12-01T21:50:40.704Z,95.65
2022-12-01T21:53:16.253Z,94.91
2022-12-01T21:55:46.349Z,94.83
2022-12-01T21:58:36.390Z,95.00
2022-12-01T22:01:16.875Z,94.55
2022-12-01T22:03:46.084Z,95.00
2022-12-01T22:06:30.846Z,94.53
2022-12-01T22:09:02.475Z,94.87
2022-12-01T22:11:31.233Z,94.60
2022-12-01T22:14:22.057Z,94.69
2022-12-01T22:16:59.825Z,94.81
2022-12-01T22:19:33.431Z,95.03
2022-12-01T22:22:15.728Z,94.86
2022-12-01T22:24:44.688Z,94.55
2022-12-01T22:27:37.211Z,94.27
2022-12-01T22:30:08.037Z,94.50
2022-12-01T22:32:40.473Z,94.81
2022-12-01T22:35:07.997Z,94.79
2022-12-01T22:37:46.707Z,94.01
2022-12-01T22:40:32.740Z,94.56
2022-12-01T22:43:18.383Z,94.68
2022-12-01T22:46:00.683Z,94.23
2022-12-01T22:48:28.255Z,94.50
2022-12-01T22:51:21.632Z,93.59
2022-12-01T22:53:50.031Z,94.11
2022-12-01T22:56:17.492Z,93.36
2022-12-01T22:58:45.048Z,94.41
2022-12-01T23:01:28.592Z,94.02
2022-12-01T23:04:15.256Z,93.80
2022-12-01T23:06:55.001Z,93.85
2022-12-01T23:09:26.545Z,93.56
2022-12-01T23:12:00.105Z,92.96
2022-12-01T23:14:28.422Z,93.59
2022-12-01T23:17:05.570Z,93.38
2022-12-01T23:19:34.723Z,93.77
2022-12-01T23:22:02.555Z,93.70
2022-12-01T23:24:33.896Z,93.92
2022-12-01T23:27:02.198Z,93.89
2022-12-01T23:29:30.475Z,93.29
2022-12-01T23:31:58.134Z,93.22
2022-12-01T23:34:25.793Z,93.50
2022-12-01T23:36:53.564Z,92.58
2022-12-01T23:39:30.252Z,92.82
2022-12-01T23:41:57.868Z,92.49
2022-12-01T23:44:40.932Z,92.86
2022-12-01T23:47:34.682Z,92.67
2022-12-01T23:50:04.428Z,92.61
2022-12-01T23:52:35.538Z,92.50
2022-12-01T23:55:14.581Z,92.33
2022-12-01T23:57:43.055Z,92.14
